createdAt,value
2023-05-25T00:02:10.403Z,8.16
2023-05-25T00:06:12.333Z,8.16
2023-05-25T00:10:13.875Z,8.14
2023-05-25T00:14:19.012Z,8.10
2023-05-25T00:18:22.565Z,8.02
2023-05-25T00:22:24.163Z,7.79
2023-05-25T00:26:25.839Z,7.70
2023-05-25T00:30:27.269Z,7.94
2023-05-25T00:34:28.750Z,7.81
2023-05-25T00:38:30.294Z,7.80
2023-05-25T00:42:32.488Z,7.65
2023-05-25T00:46:47.141Z,7.63
2023-05-25T00:50:48.865Z,7.51
2023-05-25T00:55:01.123Z,7.38
2023-05-25T00:59:06.279Z,7.47
2023-05-25T01:03:17.753Z,7.53
2023-05-25T01:07:25.761Z,7.54
2023-05-25T01:11:33.651Z,7.46
2023-05-25T01:15:37.236Z,7.25
2023-05-25T01:19:41.054Z,7.28
2023-05-25T01:24:17.426Z,7.36
2023-05-25T01:28:25.398Z,7.33
2023-05-25T01:32:28.899Z,7.22
2023-05-25T01:36:30.776Z,7.28
2023-05-25T01:40:32.632Z,7.42
2023-05-25T01:44:34.861Z,7.44
2023-05-25T01:48:53.270Z,7.41
2023-05-25T01:53:06.405Z,7.36
2023-05-25T01:57:12.659Z,7.19
2023-05-25T02:01:17.105Z,7.13
2023-05-25T02:05:20.627Z,7.18
2023-05-25T02:09:22.165Z,7.14
2023-05-25T02:13:23.687Z,7.07
2023-05-25T02:17:27.949Z,7.08
2023-05-25T02:21:29.498Z,6.96
2023-05-25T02:25:31.080Z,7.10
2023-05-25T02:29:32.711Z,7.06
2023-05-25T02:33:34.141Z,7.00
2023-05-25T02:37:35.653Z,6.87
2023-05-25T02:41:37.939Z,6.84
2023-05-25T02:45:39.410Z,6.62
2023-05-25T02:49:40.979Z,6.75
2023-05-25T02:53:42.444Z,6.67
2023-05-25T02:57:44.112Z,6.56
2023-05-25T03:01:45.699Z,6.58
2023-05-25T03:05:47.352Z,6.65
2023-05-25T03:09:48.879Z,6.66
2023-05-25T03:13:51.702Z,6.60
2023-05-25T03:17:53.896Z,6.62
2023-05-25T03:21:55.424Z,6.65
2023-05-25T03:25:58.016Z,6.61
2023-05-25T03:29:59.631Z,6.66
2023-05-25T03:34:01.211Z,6.67
2023-05-25T03:38:02.750Z,6.65
2023-05-25T03:42:04.558Z,6.72
2023-05-25T03:46:06.193Z,6.74
2023-05-25T03:50:08.291Z,6.67
2023-05-25T03:54:09.886Z,6.74
2023-05-25T03:58:11.380Z,6.56
2023-05-25T04:02:12.946Z,6.77
2023-05-25T04:06:19.201Z,6.77
2023-05-25T04:10:20.797Z,6.89
2023-05-25T04:14:22.280Z,7.00
2023-05-25T04:18:23.802Z,7.21
2023-05-25T04:22:25.344Z,7.26
2023-05-25T04:26:27.491Z,7.43
2023-05-25T04:30:28.990Z,7.63
2023-05-25T04:34:30.491Z,7.84
2023-05-25T04:38:33.202Z,8.08
2023-05-25T04:42:34.670Z,8.31
2023-05-25T04:46:39.088Z,8.57
2023-05-25T04:50:40.701Z,8.71
2023-05-25T04:54:43.521Z,8.83
2023-05-25T04:58:45.003Z,9.07
2023-05-25T05:02:46.649Z,9.34
2023-05-25T05:06:48.578Z,9.36
2023-05-25T05:10:50.161Z,9.60
2023-05-25T05:14:51.672Z,9.71
2023-05-25T05:18:53.177Z,9.92
2023-05-25T05:22:54.733Z,10.00
2023-05-25T05:26:58.923Z,9.97
2023-05-25T05:31:00.786Z,10.12
2023-05-25T05:35:02.358Z,10.27
2023-05-25T05:39:04.089Z,10.41
2023-05-25T05:43:06.968Z,10.81
2023-05-25T05:47:08.548Z,10.87
2023-05-25T05:51:10.091Z,11.02
2023-05-25T05:55:11.662Z,11.22
2023-05-25T05:59:13.148Z,11.39
2023-05-25T06:03:14.647Z,11.55
2023-05-25T06:07:16.156Z,11.68
2023-05-25T06:11:17.666Z,11.88
2023-05-25T06:15:19.135Z,12.05
2023-05-25T06:19:20.641Z,12.09
2023-05-25T06:23:22.111Z,12.38
2023-05-25T06:27:23.574Z,12.45
2023-05-25T06:31:25.139Z,12.83
2023-05-25T06:35:26.656Z,12.87
2023-05-25T06:39:28.165Z,13.19
2023-05-25T06:43:29.837Z,13.10
2023-05-25T06:47:31.453Z,12.93
2023-05-25T06:51:33.314Z,13.35
2023-05-25T06:55:34.796Z,13.88
2023-05-25T06:59:36.415Z,14.13
2023-05-25T07:03:38.657Z,14.15
2023-05-25T07:07:40.233Z,14.26
2023-05-25T07:11:41.746Z,14.64
2023-05-25T07:15:43.568Z,14.23
2023-05-25T07:19:45.406Z,14.28
2023-05-25T07:23:46.917Z,14.71
2023-05-25T07:27:54.996Z,14.69
2023-05-25T07:31:56.583Z,14.89
2023-05-25T07:35:58.126Z,14.73
2023-05-25T07:40:00.098Z,15.04
2023-05-25T07:44:01.572Z,15.59
2023-05-25T07:48:03.105Z,15.71
2023-05-25T07:52:06.027Z,15.56
2023-05-25T07:56:10.454Z,15.62
2023-05-25T08:00:12.696Z,15.74
2023-05-25T08:04:14.329Z,15.51
2023-05-25T08:08:16.070Z,15.21
2023-05-25T08:16:22.045Z,15.20
2023-05-25T08:20:24.904Z,15.26
2023-05-25T08:24:26.456Z,15.25
2023-05-25T08:28:27.947Z,15.55
2023-05-25T08:32:29.423Z,16.25
2023-05-25T08:36:33.998Z,15.51
2023-05-25T08:40:35.743Z,15.70
2023-05-25T08:44:38.236Z,16.48
2023-05-25T08:48:42.433Z,16.32
2023-05-25T08:52:46.789Z,16.46
2023-05-25T08:56:55.100Z,17.03
2023-05-25T09:01:00.876Z,17.29
2023-05-25T09:05:02.614Z,16.82
2023-05-25T09:09:05.400Z,15.95
2023-05-25T09:13:20.517Z,15.98
2023-05-25T09:17:23.272Z,15.63
2023-05-25T09:21:26.477Z,16.23
2023-05-25T09:25:29.024Z,16.81
2023-05-25T09:29:32.210Z,16.99
2023-05-25T09:33:36.809Z,16.60
2023-05-25T09:37:39.294Z,16.74
2023-05-25T09:41:41.569Z,17.32
2023-05-25T09:45:43.204Z,18.25
2023-05-25T09:49:47.598Z,17.90
2023-05-25T09:53:49.319Z,18.63
2023-05-25T09:57:54.983Z,18.68
2023-05-25T10:01:56.815Z,17.69
2023-05-25T10:05:58.418Z,17.53
2023-05-25T10:10:06.338Z,18.05
2023-05-25T10:14:08.459Z,17.55
2023-05-25T10:18:13.543Z,17.65
2023-05-25T10:22:31.850Z,18.52
2023-05-25T10:26:37.015Z,19.10
2023-05-25T10:30:39.125Z,18.39
2023-05-25T10:34:41.824Z,19.13
2023-05-25T10:38:44.716Z,19.43
2023-05-25T10:42:46.451Z,19.49
2023-05-25T10:46:49.563Z,20.45
2023-05-25T10:50:51.626Z,19.90
2023-05-25T10:54:56.862Z,18.97
2023-05-25T10:58:58.640Z,19.51
2023-05-25T11:03:00.172Z,20.04
2023-05-25T11:07:01.769Z,20.84
2023-05-25T11:11:03.295Z,20.84
2023-05-25T11:15:18.182Z,20.56
2023-05-25T11:23:57.160Z,20.97
2023-05-25T11:28:04.572Z,21.07
2023-05-25T11:32:13.216Z,21.44
2023-05-25T11:36:20.456Z,19.76
2023-05-25T11:40:25.143Z,20.20
2023-05-25T11:44:33.394Z,20.26
2023-05-25T11:48:36.537Z,19.57
2023-05-25T11:52:38.021Z,20.99
2023-05-25T11:56:39.639Z,21.34
2023-05-25T12:00:41.401Z,21.40
2023-05-25T12:04:59.154Z,21.12
2023-05-25T12:09:08.208Z,21.63
2023-05-25T12:13:11.349Z,21.17
2023-05-25T12:17:13.163Z,19.85
2023-05-25T12:21:15.017Z,19.60
2023-05-25T12:25:21.261Z,20.21
2023-05-25T12:29:23.605Z,21.02
2023-05-25T12:33:25.144Z,20.65
2023-05-25T12:37:26.701Z,20.81
2023-05-25T12:41:28.216Z,19.86
2023-05-25T12:45:29.787Z,19.71
2023-05-25T12:49:34.790Z,19.79
2023-05-25T12:53:57.534Z,19.20
2023-05-25T12:58:01.520Z,19.60
2023-05-25T13:02:06.248Z,19.50
2023-05-25T13:06:08.035Z,19.21
2023-05-25T13:10:11.983Z,18.78
2023-05-25T13:14:13.482Z,19.08
2023-05-25T13:18:14.949Z,19.60
2023-05-25T13:22:16.434Z,19.67
2023-05-25T13:26:19.516Z,20.64
2023-05-25T13:30:22.029Z,20.56
2023-05-25T13:34:23.628Z,20.49
2023-05-25T13:38:25.193Z,22.52
2023-05-25T13:42:26.749Z,22.88
2023-05-25T13:46:34.627Z,20.80
2023-05-25T13:50:36.858Z,20.91
2023-05-25T13:54:38.392Z,20.30
2023-05-25T13:58:39.923Z,20.01
2023-05-25T14:02:41.599Z,20.27
2023-05-25T14:06:43.566Z,20.21
2023-05-25T14:10:45.605Z,21.32
2023-05-25T14:14:47.444Z,22.00
2023-05-25T14:18:49.028Z,21.75
2023-05-25T14:22:50.868Z,20.74
2023-05-25T14:26:52.328Z,20.82
2023-05-25T14:30:53.814Z,20.29
2023-05-25T14:34:55.336Z,21.59
2023-05-25T14:38:56.818Z,22.06
2023-05-25T14:42:58.301Z,23.16
2023-05-25T14:46:59.790Z,23.84
2023-05-25T14:51:02.766Z,21.36
2023-05-25T14:55:04.556Z,20.99
2023-05-25T14:59:06.097Z,20.89
2023-05-25T15:03:07.796Z,21.45
2023-05-25T15:07:11.525Z,23.52
2023-05-25T15:11:14.348Z,22.62
2023-05-25T15:15:17.110Z,20.53
2023-05-25T15:19:18.598Z,21.15
2023-05-25T15:23:20.173Z,20.41
2023-05-25T15:27:21.722Z,20.64
2023-05-25T15:31:23.940Z,21.67
2023-05-25T15:35:30.971Z,21.26
2023-05-25T15:39:32.649Z,20.43
2023-05-25T15:43:34.142Z,20.94
2023-05-25T15:47:35.715Z,21.65
2023-05-25T15:51:39.705Z,20.54
2023-05-25T15:55:41.144Z,21.55
2023-05-25T15:59:42.611Z,22.73
2023-05-25T16:03:44.878Z,22.51
2023-05-25T16:07:46.614Z,23.62
2023-05-25T16:11:48.101Z,22.48
2023-05-25T16:15:49.651Z,22.50
2023-05-25T16:19:51.182Z,22.72
2023-05-25T16:23:52.739Z,20.91
2023-05-25T16:27:54.283Z,21.34
2023-05-25T16:31:56.593Z,21.65
2023-05-25T16:35:58.316Z,22.62
2023-05-25T16:39:59.829Z,21.37
2023-05-25T16:44:01.492Z,21.31
2023-05-25T16:48:03.423Z,22.35
2023-05-25T16:52:05.179Z,22.77
2023-05-25T16:56:06.861Z,22.49
2023-05-25T17:00:09.236Z,21.40
2023-05-25T17:04:10.901Z,22.55
2023-05-25T17:08:12.410Z,21.33
2023-05-25T17:12:13.876Z,20.93
2023-05-25T17:16:15.522Z,20.28
2023-05-25T17:20:17.406Z,19.91
2023-05-25T17:24:18.931Z,20.99
2023-05-25T17:28:20.564Z,21.05
2023-05-25T17:32:22.077Z,19.97
2023-05-25T17:36:23.800Z,20.02
2023-05-25T17:40:25.312Z,20.12
2023-05-25T17:44:26.959Z,19.01
2023-05-25T17:48:28.549Z,18.35
2023-05-25T17:52:31.422Z,17.75
2023-05-25T17:56:32.904Z,17.28
2023-05-25T18:00:34.398Z,17.73
2023-05-25T18:04:36.030Z,17.34
2023-05-25T18:08:37.544Z,17.73
2023-05-25T18:12:39.092Z,17.40
2023-05-25T18:16:42.292Z,17.60
2023-05-25T18:20:43.994Z,17.29
2023-05-25T18:24:45.484Z,17.39
2023-05-25T18:28:46.971Z,17.25
2023-05-25T18:32:48.477Z,17.08
2023-05-25T18:36:50.048Z,16.97
2023-05-25T18:40:51.593Z,16.83
2023-05-25T18:44:53.069Z,16.62
2023-05-25T18:48:55.597Z,16.73
2023-05-25T18:52:57.921Z,16.62
2023-05-25T18:56:59.372Z,16.63
2023-05-25T19:01:00.885Z,16.44
2023-05-25T19:05:02.941Z,16.31
2023-05-25T19:09:04.523Z,16.25
2023-05-25T19:13:05.992Z,16.33
2023-05-25T19:17:07.633Z,16.32
2023-05-25T19:21:09.200Z,16.30
2023-05-25T19:25:10.811Z,16.15
2023-05-25T19:29:12.352Z,15.77
2023-05-25T19:33:13.976Z,15.77
2023-05-25T19:37:15.484Z,15.75
2023-05-25T19:41:17.036Z,15.60
2023-05-25T19:45:21.301Z,15.68
2023-05-25T19:49:22.816Z,15.43
2023-05-25T19:53:24.661Z,15.40
2023-05-25T19:57:27.303Z,15.13
2023-05-25T20:01:29.048Z,15.31
2023-05-25T20:05:30.831Z,14.97
2023-05-25T20:09:32.408Z,15.07
2023-05-25T20:13:34.028Z,14.96
2023-05-25T20:17:35.804Z,14.77
2023-05-25T20:21:37.351Z,14.40
2023-05-25T20:25:38.912Z,14.61
2023-05-25T20:29:40.410Z,14.58
2023-05-25T20:33:42.089Z,14.54
2023-05-25T20:37:43.693Z,14.56
2023-05-25T20:41:45.472Z,14.43
2023-05-25T20:45:47.293Z,14.36
2023-05-25T20:49:49.186Z,14.44
2023-05-25T20:53:50.753Z,14.15
2023-05-25T20:57:52.322Z,13.93
2023-05-25T21:01:53.917Z,14.06
2023-05-25T21:05:55.554Z,14.11
2023-05-25T21:09:59.326Z,13.99
2023-05-25T21:14:00.862Z,14.01
2023-05-25T21:18:03.613Z,14.16
2023-05-25T21:22:05.312Z,14.03
2023-05-25T21:26:06.970Z,13.89
2023-05-25T21:30:08.819Z,13.58
2023-05-25T21:34:10.298Z,13.72
2023-05-25T21:38:11.832Z,13.67
2023-05-25T21:42:13.358Z,13.27
2023-05-25T21:46:14.903Z,13.06
2023-05-25T21:50:16.513Z,13.12
2023-05-25T21:54:17.989Z,13.11
2023-05-25T21:58:19.845Z,13.04
2023-05-25T22:02:21.983Z,12.88
2023-05-25T22:06:23.597Z,12.79
2023-05-25T22:10:25.036Z,12.77
2023-05-25T22:14:26.548Z,12.92
2023-05-25T22:18:28.057Z,13.06
2023-05-25T22:22:29.549Z,13.16
2023-05-25T22:26:31.106Z,13.07
2023-05-25T22:30:32.674Z,13.10
2023-05-25T22:34:34.133Z,13.04
2023-05-25T22:38:35.601Z,13.01
2023-05-25T22:42:37.125Z,12.98
2023-05-25T22:46:38.639Z,13.05
2023-05-25T22:50:40.207Z,13.10
2023-05-25T22:54:41.716Z,12.96
2023-05-25T22:58:43.154Z,12.81
2023-05-25T23:02:44.733Z,12.77
2023-05-25T23:06:46.285Z,12.84
2023-05-25T23:10:47.745Z,12.55
2023-05-25T23:14:49.445Z,12.53
2023-05-25T23:18:51.755Z,12.73
2023-05-25T23:22:53.190Z,12.95
2023-05-25T23:26:54.634Z,12.81
2023-05-25T23:30:56.772Z,12.90
2023-05-25T23:34:58.317Z,12.85
2023-05-25T23:38:59.923Z,12.72
2023-05-25T23:43:01.451Z,12.78
2023-05-25T23:47:02.936Z,12.89
2023-05-25T23:51:07.309Z,12.72
2023-05-25T23:55:08.845Z,12.35
2023-05-25T23:59:12.099Z,12.42
